sensor_id;sensor_type;location;lat;lon;timestamp;P1;durP1;ratioP1;P2;durP2;ratioP2
77769;SDS011;66961;51.482;9.160;2023-05-07T00:01:28;16.40;;;10.60;;
77769;SDS011;66961;51.482;9.160;2023-05-07T00:03:53;15.98;;;11.27;;
77769;SDS011;66961;51.482;9.160;2023-05-07T00:06:18;15.17;;;11.90;;
77769;SDS011;66961;51.482;9.160;2023-05-07T00:08:43;17.43;;;13.90;;
77769;SDS011;66961;51.482;9.160;2023-05-07T00:11:09;21.47;;;15.47;;
77769;SDS011;66961;51.482;9.160;2023-05-07T00:13:34;18.57;;;16.07;;
77769;SDS011;66961;51.482;9.160;2023-05-07T00:15:59;20.43;;;16.47;;
77769;SDS011;66961;51.482;9.160;2023-05-07T00:18:24;22.50;;;17.17;;
77769;SDS011;66961;51.482;9.160;2023-05-07T00:20:50;21.10;;;15.60;;
77769;SDS011;66961;51.482;9.160;2023-05-07T00:23:15;22.37;;;17.63;;
77769;SDS011;66961;51.482;9.160;2023-05-07T00:25:40;21.23;;;15.80;;
77769;SDS011;66961;51.482;9.160;2023-05-07T00:28:05;20.40;;;16.70;;
77769;SDS011;66961;51.482;9.160;2023-05-07T00:30:31;19.87;;;16.73;;
77769;SDS011;66961;51.482;9.160;2023-05-07T00:32:56;22.23;;;16.87;;
77769;SDS011;66961;51.482;9.160;2023-05-07T00:35:21;20.27;;;16.20;;
77769;SDS011;66961;51.482;9.160;2023-05-07T00:37:47;22.02;;;16.80;;
77769;SDS011;66961;51.482;9.160;2023-05-07T00:40:12;21.43;;;16.93;;
77769;SDS011;66961;51.482;9.160;2023-05-07T00:42:37;24.87;;;17.30;;
77769;SDS011;66961;51.482;9.160;2023-05-07T00:45:02;23.55;;;16.70;;
77769;SDS011;66961;51.482;9.160;2023-05-07T00:47:28;22.48;;;17.88;;
77769;SDS011;66961;51.482;9.160;2023-05-07T00:49:53;24.05;;;18.23;;
77769;SDS011;66961;51.482;9.160;2023-05-07T00:52:19;26.75;;;19.08;;
77769;SDS011;66961;51.482;9.160;2023-05-07T00:54:46;25.52;;;18.25;;
77769;SDS011;66961;51.482;9.160;2023-05-07T00:57:12;25.00;;;18.70;;
77769;SDS011;66961;51.482;9.160;2023-05-07T00:59:37;23.47;;;19.10;;
77769;SDS011;66961;51.482;9.160;2023-05-07T01:02:03;25.42;;;19.02;;
77769;SDS011;66961;51.482;9.160;2023-05-07T01:04:28;25.23;;;17.30;;
77769;SDS011;66961;51.482;9.160;2023-05-07T01:06:54;23.40;;;16.07;;
77769;SDS011;66961;51.482;9.160;2023-05-07T01:09:21;24.67;;;17.80;;
77769;SDS011;66961;51.482;9.160;2023-05-07T01:11:48;23.95;;;18.40;;
77769;SDS011;66961;51.482;9.160;2023-05-07T01:14:15;26.15;;;17.67;;
77769;SDS011;66961;51.482;9.160;2023-05-07T01:16:41;22.33;;;17.48;;
77769;SDS011;66961;51.482;9.160;2023-05-07T01:19:07;25.00;;;18.65;;
77769;SDS011;66961;51.482;9.160;2023-05-07T01:21:34;23.65;;;18.88;;
77769;SDS011;66961;51.482;9.160;2023-05-07T01:24:02;24.05;;;18.88;;
77769;SDS011;66961;51.482;9.160;2023-05-07T01:26:29;25.95;;;19.33;;
77769;SDS011;66961;51.482;9.160;2023-05-07T01:28:55;25.30;;;17.50;;
77769;SDS011;66961;51.482;9.160;2023-05-07T01:31:20;27.87;;;19.07;;
77769;SDS011;66961;51.482;9.160;2023-05-07T01:33:47;27.40;;;18.98;;
77769;SDS011;66961;51.482;9.160;2023-05-07T01:36:14;23.80;;;18.77;;
77769;SDS011;66961;51.482;9.160;2023-05-07T01:38:40;24.75;;;17.73;;
77769;SDS011;66961;51.482;9.160;2023-05-07T01:41:06;23.73;;;18.67;;
77769;SDS011;66961;51.482;9.160;2023-05-07T01:43:32;27.58;;;18.77;;
77769;SDS011;66961;51.482;9.160;2023-05-07T01:45:58;26.95;;;20.35;;
77769;SDS011;66961;51.482;9.160;2023-05-07T01:48:24;27.30;;;18.95;;
77769;SDS011;66961;51.482;9.160;2023-05-07T01:50:50;26.27;;;20.27;;
77769;SDS011;66961;51.482;9.160;2023-05-07T01:53:17;30.95;;;20.95;;
77769;SDS011;66961;51.482;9.160;2023-05-07T01:55:42;27.48;;;20.58;;
77769;SDS011;66961;51.482;9.160;2023-05-07T01:58:07;28.47;;;20.63;;
77769;SDS011;66961;51.482;9.160;2023-05-07T02:00:32;30.30;;;20.13;;
77769;SDS011;66961;51.482;9.160;2023-05-07T02:02:59;29.80;;;21.05;;
77769;SDS011;66961;51.482;9.160;2023-05-07T02:05:24;29.23;;;21.13;;
77769;SDS011;66961;51.482;9.160;2023-05-07T02:07:49;27.93;;;20.53;;
77769;SDS011;66961;51.482;9.160;2023-05-07T02:10:15;32.93;;;22.07;;
77769;SDS011;66961;51.482;9.160;2023-05-07T02:12:40;28.53;;;21.13;;
77769;SDS011;66961;51.482;9.160;2023-05-07T02:15:05;32.27;;;21.70;;
77769;SDS011;66961;51.482;9.160;2023-05-07T02:17:31;30.38;;;21.60;;
77769;SDS011;66961;51.482;9.160;2023-05-07T02:19:56;32.87;;;22.33;;
77769;SDS011;66961;51.482;9.160;2023-05-07T02:22:22;35.15;;;24.20;;
77769;SDS011;66961;51.482;9.160;2023-05-07T02:24:47;36.45;;;22.48;;
77769;SDS011;66961;51.482;9.160;2023-05-07T02:27:12;33.13;;;22.60;;
77769;SDS011;66961;51.482;9.160;2023-05-07T02:29:38;33.73;;;22.40;;
77769;SDS011;66961;51.482;9.160;2023-05-07T02:32:03;32.90;;;22.20;;
77769;SDS011;66961;51.482;9.160;2023-05-07T02:34:28;35.78;;;23.60;;
77769;SDS011;66961;51.482;9.160;2023-05-07T02:36:54;36.70;;;23.00;;
77769;SDS011;66961;51.482;9.160;2023-05-07T02:39:19;33.03;;;23.00;;
77769;SDS011;66961;51.482;9.160;2023-05-07T02:41:44;36.43;;;23.67;;
77769;SDS011;66961;51.482;9.160;2023-05-07T02:44:09;34.13;;;24.80;;
77769;SDS011;66961;51.482;9.160;2023-05-07T02:46:35;35.13;;;23.50;;
77769;SDS011;66961;51.482;9.160;2023-05-07T02:49:00;36.27;;;23.50;;
77769;SDS011;66961;51.482;9.160;2023-05-07T02:51:25;37.63;;;25.47;;
77769;SDS011;66961;51.482;9.160;2023-05-07T02:53:51;38.05;;;23.13;;
77769;SDS011;66961;51.482;9.160;2023-05-07T02:56:16;38.37;;;24.07;;
77769;SDS011;66961;51.482;9.160;2023-05-07T02:58:41;33.20;;;24.33;;
77769;SDS011;66961;51.482;9.160;2023-05-07T03:01:07;38.13;;;25.00;;
77769;SDS011;66961;51.482;9.160;2023-05-07T03:03:32;36.00;;;23.90;;
77769;SDS011;66961;51.482;9.160;2023-05-07T03:05:58;39.80;;;25.60;;
77769;SDS011;66961;51.482;9.160;2023-05-07T03:08:23;33.10;;;24.27;;
77769;SDS011;66961;51.482;9.160;2023-05-07T03:10:49;35.85;;;24.70;;
77769;SDS011;66961;51.482;9.160;2023-05-07T03:13:14;37.50;;;22.83;;
77769;SDS011;66961;51.482;9.160;2023-05-07T03:15:39;38.45;;;24.05;;
77769;SDS011;66961;51.482;9.160;2023-05-07T03:18:05;36.27;;;25.33;;
77769;SDS011;66961;51.482;9.160;2023-05-07T03:20:30;39.17;;;26.40;;
77769;SDS011;66961;51.482;9.160;2023-05-07T03:22:55;39.40;;;24.43;;
77769;SDS011;66961;51.482;9.160;2023-05-07T03:25:21;37.05;;;24.58;;
77769;SDS011;66961;51.482;9.160;2023-05-07T03:27:46;39.05;;;25.58;;
77769;SDS011;66961;51.482;9.160;2023-05-07T03:30:11;43.90;;;26.73;;
77769;SDS011;66961;51.482;9.160;2023-05-07T03:32:37;39.00;;;25.20;;
77769;SDS011;66961;51.482;9.160;2023-05-07T03:35:02;39.05;;;26.52;;
77769;SDS011;66961;51.482;9.160;2023-05-07T03:37:29;40.53;;;25.90;;
77769;SDS011;66961;51.482;9.160;2023-05-07T03:39:54;38.50;;;24.27;;
77769;SDS011;66961;51.482;9.160;2023-05-07T03:42:20;42.77;;;27.00;;
77769;SDS011;66961;51.482;9.160;2023-05-07T03:44:45;38.42;;;24.90;;
77769;SDS011;66961;51.482;9.160;2023-05-07T03:47:10;40.30;;;25.70;;
77769;SDS011;66961;51.482;9.160;2023-05-07T03:49:36;39.67;;;25.87;;
77769;SDS011;66961;51.482;9.160;2023-05-07T03:52:01;40.42;;;25.67;;
77769;SDS011;66961;51.482;9.160;2023-05-07T03:54:27;37.72;;;25.75;;
77769;SDS011;66961;51.482;9.160;2023-05-07T03:56:52;42.80;;;27.23;;
77769;SDS011;66961;51.482;9.160;2023-05-07T03:59:17;39.87;;;25.17;;
77769;SDS011;66961;51.482;9.160;2023-05-07T04:01:42;39.73;;;25.43;;
77769;SDS011;66961;51.482;9.160;2023-05-07T04:04:08;41.70;;;25.40;;
77769;SDS011;66961;51.482;9.160;2023-05-07T04:06:33;40.63;;;24.90;;
77769;SDS011;66961;51.482;9.160;2023-05-07T04:08:58;38.83;;;25.00;;
77769;SDS011;66961;51.482;9.160;2023-05-07T04:11:23;41.67;;;25.30;;
77769;SDS011;66961;51.482;9.160;2023-05-07T04:13:49;38.45;;;25.42;;
77769;SDS011;66961;51.482;9.160;2023-05-07T04:16:14;41.27;;;25.27;;
77769;SDS011;66961;51.482;9.160;2023-05-07T04:18:39;36.87;;;24.50;;
77769;SDS011;66961;51.482;9.160;2023-05-07T04:21:06;37.40;;;24.63;;
77769;SDS011;66961;51.482;9.160;2023-05-07T04:23:39;34.50;;;22.92;;
77769;SDS011;66961;51.482;9.160;2023-05-07T04:26:04;38.60;;;23.63;;
77769;SDS011;66961;51.482;9.160;2023-05-07T04:28:29;37.30;;;23.43;;
77769;SDS011;66961;51.482;9.160;2023-05-07T04:30:54;36.63;;;23.33;;
77769;SDS011;66961;51.482;9.160;2023-05-07T04:33:20;38.53;;;25.30;;
77769;SDS011;66961;51.482;9.160;2023-05-07T04:35:45;37.67;;;24.03;;
77769;SDS011;66961;51.482;9.160;2023-05-07T04:38:10;33.73;;;22.47;;
77769;SDS011;66961;51.482;9.160;2023-05-07T04:40:36;36.40;;;24.00;;
77769;SDS011;66961;51.482;9.160;2023-05-07T04:43:01;36.42;;;24.55;;
77769;SDS011;66961;51.482;9.160;2023-05-07T04:45:26;34.83;;;22.77;;
77769;SDS011;66961;51.482;9.160;2023-05-07T04:47:51;36.58;;;22.95;;
77769;SDS011;66961;51.482;9.160;2023-05-07T04:50:17;33.43;;;22.37;;
77769;SDS011;66961;51.482;9.160;2023-05-07T04:52:42;33.08;;;22.13;;
77769;SDS011;66961;51.482;9.160;2023-05-07T04:55:08;36.63;;;23.27;;
77769;SDS011;66961;51.482;9.160;2023-05-07T04:57:33;36.05;;;22.02;;
77769;SDS011;66961;51.482;9.160;2023-05-07T04:59:58;34.43;;;23.27;;
77769;SDS011;66961;51.482;9.160;2023-05-07T05:02:24;32.03;;;20.63;;
77769;SDS011;66961;51.482;9.160;2023-05-07T05:04:49;32.03;;;21.73;;
77769;SDS011;66961;51.482;9.160;2023-05-07T05:07:14;33.87;;;20.63;;
77769;SDS011;66961;51.482;9.160;2023-05-07T05:09:39;32.90;;;19.73;;
77769;SDS011;66961;51.482;9.160;2023-05-07T05:12:05;28.97;;;18.80;;
77769;SDS011;66961;51.482;9.160;2023-05-07T05:14:30;29.40;;;19.00;;
77769;SDS011;66961;51.482;9.160;2023-05-07T05:16:55;32.50;;;20.07;;
77769;SDS011;66961;51.482;9.160;2023-05-07T05:19:20;28.27;;;19.83;;
77769;SDS011;66961;51.482;9.160;2023-05-07T05:21:46;28.53;;;18.13;;
77769;SDS011;66961;51.482;9.160;2023-05-07T05:24:11;27.47;;;19.17;;
77769;SDS011;66961;51.482;9.160;2023-05-07T05:26:36;28.23;;;18.83;;
77769;SDS011;66961;51.482;9.160;2023-05-07T05:29:01;29.40;;;18.57;;
77769;SDS011;66961;51.482;9.160;2023-05-07T05:31:27;28.17;;;18.73;;
77769;SDS011;66961;51.482;9.160;2023-05-07T05:33:52;25.67;;;18.87;;
77769;SDS011;66961;51.482;9.160;2023-05-07T05:36:17;27.70;;;18.50;;
77769;SDS011;66961;51.482;9.160;2023-05-07T05:38:42;27.00;;;19.00;;
77769;SDS011;66961;51.482;9.160;2023-05-07T05:41:08;26.92;;;18.70;;
77769;SDS011;66961;51.482;9.160;2023-05-07T05:43:33;25.47;;;16.60;;
77769;SDS011;66961;51.482;9.160;2023-05-07T05:45:58;25.77;;;17.60;;
77769;SDS011;66961;51.482;9.160;2023-05-07T05:48:24;24.20;;;16.23;;
77769;SDS011;66961;51.482;9.160;2023-05-07T05:50:49;25.55;;;17.98;;
77769;SDS011;66961;51.482;9.160;2023-05-07T05:53:15;27.47;;;18.53;;
77769;SDS011;66961;51.482;9.160;2023-05-07T05:55:41;25.07;;;16.47;;
77769;SDS011;66961;51.482;9.160;2023-05-07T05:58:06;23.27;;;16.35;;
77769;SDS011;66961;51.482;9.160;2023-05-07T06:00:32;22.42;;;15.13;;
77769;SDS011;66961;51.482;9.160;2023-05-07T06:02:57;24.88;;;17.15;;
77769;SDS011;66961;51.482;9.160;2023-05-07T06:05:23;23.10;;;16.52;;
77769;SDS011;66961;51.482;9.160;2023-05-07T06:07:48;22.93;;;15.47;;
77769;SDS011;66961;51.482;9.160;2023-05-07T06:10:13;21.43;;;15.17;;
77769;SDS011;66961;51.482;9.160;2023-05-07T06:12:39;20.90;;;14.27;;
77769;SDS011;66961;51.482;9.160;2023-05-07T06:15:04;19.50;;;15.23;;
77769;SDS011;66961;51.482;9.160;2023-05-07T06:17:30;20.50;;;14.38;;
77769;SDS011;66961;51.482;9.160;2023-05-07T06:19:55;20.00;;;14.90;;
77769;SDS011;66961;51.482;9.160;2023-05-07T06:22:21;18.10;;;14.05;;
77769;SDS011;66961;51.482;9.160;2023-05-07T06:24:46;19.00;;;12.95;;
77769;SDS011;66961;51.482;9.160;2023-05-07T06:27:11;20.40;;;14.17;;
77769;SDS011;66961;51.482;9.160;2023-05-07T06:29:37;19.50;;;13.97;;
77769;SDS011;66961;51.482;9.160;2023-05-07T06:34:34;17.13;;;12.60;;
77769;SDS011;66961;51.482;9.160;2023-05-07T06:36:59;18.23;;;12.15;;
77769;SDS011;66961;51.482;9.160;2023-05-07T06:39:24;17.03;;;11.87;;
77769;SDS011;66961;51.482;9.160;2023-05-07T06:41:50;18.80;;;13.70;;
77769;SDS011;66961;51.482;9.160;2023-05-07T06:44:15;14.77;;;10.60;;
77769;SDS011;66961;51.482;9.160;2023-05-07T06:46:40;17.80;;;11.63;;
77769;SDS011;66961;51.482;9.160;2023-05-07T06:49:06;16.63;;;12.60;;
77769;SDS011;66961;51.482;9.160;2023-05-07T06:51:32;16.55;;;10.80;;
77769;SDS011;66961;51.482;9.160;2023-05-07T06:53:57;14.90;;;10.85;;
77769;SDS011;66961;51.482;9.160;2023-05-07T06:56:22;16.33;;;11.63;;
77769;SDS011;66961;51.482;9.160;2023-05-07T06:58:48;13.97;;;11.03;;
77769;SDS011;66961;51.482;9.160;2023-05-07T07:01:13;16.63;;;12.27;;
77769;SDS011;66961;51.482;9.160;2023-05-07T07:03:38;15.60;;;11.53;;
77769;SDS011;66961;51.482;9.160;2023-05-07T07:06:04;14.07;;;11.43;;
77769;SDS011;66961;51.482;9.160;2023-05-07T07:08:29;16.65;;;11.38;;
77769;SDS011;66961;51.482;9.160;2023-05-07T07:10:54;16.15;;;11.98;;
77769;SDS011;66961;51.482;9.160;2023-05-07T07:13:19;15.43;;;12.73;;
77769;SDS011;66961;51.482;9.160;2023-05-07T07:15:45;17.20;;;12.47;;
77769;SDS011;66961;51.482;9.160;2023-05-07T07:18:10;14.53;;;11.20;;
77769;SDS011;66961;51.482;9.160;2023-05-07T07:20:35;15.07;;;11.07;;
77769;SDS011;66961;51.482;9.160;2023-05-07T07:23:01;16.47;;;11.60;;
77769;SDS011;66961;51.482;9.160;2023-05-07T07:25:26;15.03;;;11.50;;
77769;SDS011;66961;51.482;9.160;2023-05-07T07:27:51;14.03;;;10.63;;
77769;SDS011;66961;51.482;9.160;2023-05-07T07:30:16;16.20;;;12.05;;
77769;SDS011;66961;51.482;9.160;2023-05-07T07:32:42;15.87;;;11.50;;
77769;SDS011;66961;51.482;9.160;2023-05-07T07:35:07;14.20;;;10.95;;
77769;SDS011;66961;51.482;9.160;2023-05-07T07:37:33;14.35;;;11.82;;
77769;SDS011;66961;51.482;9.160;2023-05-07T07:39:58;15.43;;;12.80;;
77769;SDS011;66961;51.482;9.160;2023-05-07T07:42:23;15.63;;;11.63;;
77769;SDS011;66961;51.482;9.160;2023-05-07T07:44:49;17.00;;;12.27;;
77769;SDS011;66961;51.482;9.160;2023-05-07T07:47:14;14.80;;;11.90;;
77769;SDS011;66961;51.482;9.160;2023-05-07T07:49:39;14.97;;;11.87;;
77769;SDS011;66961;51.482;9.160;2023-05-07T07:52:04;15.53;;;11.93;;
77769;SDS011;66961;51.482;9.160;2023-05-07T07:54:30;15.25;;;11.15;;
77769;SDS011;66961;51.482;9.160;2023-05-07T07:56:55;14.27;;;11.57;;
77769;SDS011;66961;51.482;9.160;2023-05-07T07:59:20;14.77;;;11.47;;
77769;SDS011;66961;51.482;9.160;2023-05-07T08:01:45;13.50;;;11.17;;
77769;SDS011;66961;51.482;9.160;2023-05-07T08:04:11;15.18;;;11.43;;
77769;SDS011;66961;51.482;9.160;2023-05-07T08:06:36;14.50;;;11.70;;
77769;SDS011;66961;51.482;9.160;2023-05-07T08:09:01;15.93;;;11.57;;
77769;SDS011;66961;51.482;9.160;2023-05-07T08:11:27;12.80;;;10.48;;
77769;SDS011;66961;51.482;9.160;2023-05-07T08:13:53;14.82;;;10.90;;
77769;SDS011;66961;51.482;9.160;2023-05-07T08:16:19;13.52;;;11.00;;
77769;SDS011;66961;51.482;9.160;2023-05-07T08:18:44;14.07;;;11.13;;
77769;SDS011;66961;51.482;9.160;2023-05-07T08:21:10;13.10;;;10.53;;
77769;SDS011;66961;51.482;9.160;2023-05-07T08:23:35;13.88;;;11.07;;
77769;SDS011;66961;51.482;9.160;2023-05-07T08:26:00;12.80;;;10.40;;
77769;SDS011;66961;51.482;9.160;2023-05-07T08:28:26;13.00;;;10.27;;
77769;SDS011;66961;51.482;9.160;2023-05-07T08:30:51;13.38;;;10.32;;
77769;SDS011;66961;51.482;9.160;2023-05-07T08:33:16;13.05;;;10.65;;
77769;SDS011;66961;51.482;9.160;2023-05-07T08:35:42;13.20;;;10.57;;
77769;SDS011;66961;51.482;9.160;2023-05-07T08:38:07;15.15;;;10.40;;
77769;SDS011;66961;51.482;9.160;2023-05-07T08:40:34;12.80;;;10.37;;
77769;SDS011;66961;51.482;9.160;2023-05-07T08:43:02;14.43;;;10.38;;
77769;SDS011;66961;51.482;9.160;2023-05-07T08:45:30;12.95;;;9.70;;
77769;SDS011;66961;51.482;9.160;2023-05-07T08:48:08;13.82;;;11.15;;
77769;SDS011;66961;51.482;9.160;2023-05-07T08:50:39;11.73;;;10.18;;
77769;SDS011;66961;51.482;9.160;2023-05-07T08:53:04;13.02;;;10.18;;
77769;SDS011;66961;51.482;9.160;2023-05-07T08:55:30;13.85;;;11.30;;
77769;SDS011;66961;51.482;9.160;2023-05-07T08:57:55;11.73;;;9.50;;
77769;SDS011;66961;51.482;9.160;2023-05-07T09:00:21;13.07;;;10.25;;
77769;SDS011;66961;51.482;9.160;2023-05-07T09:02:46;12.30;;;9.98;;
77769;SDS011;66961;51.482;9.160;2023-05-07T09:05:11;10.75;;;8.57;;
77769;SDS011;66961;51.482;9.160;2023-05-07T09:07:37;11.90;;;9.73;;
77769;SDS011;66961;51.482;9.160;2023-05-07T09:10:03;11.70;;;9.13;;
77769;SDS011;66961;51.482;9.160;2023-05-07T09:12:29;13.15;;;9.93;;
77769;SDS011;66961;51.482;9.160;2023-05-07T09:14:54;10.90;;;9.13;;
77769;SDS011;66961;51.482;9.160;2023-05-07T09:17:20;10.93;;;8.80;;
77769;SDS011;66961;51.482;9.160;2023-05-07T09:19:45;11.93;;;8.70;;
77769;SDS011;66961;51.482;9.160;2023-05-07T09:22:10;10.50;;;8.70;;
77769;SDS011;66961;51.482;9.160;2023-05-07T09:24:36;8.95;;;7.88;;
77769;SDS011;66961;51.482;9.160;2023-05-07T09:27:02;11.73;;;9.05;;
77769;SDS011;66961;51.482;9.160;2023-05-07T09:29:27;15.38;;;8.95;;
77769;SDS011;66961;51.482;9.160;2023-05-07T09:31:53;9.75;;;7.35;;
77769;SDS011;66961;51.482;9.160;2023-05-07T09:34:18;11.90;;;8.33;;
77769;SDS011;66961;51.482;9.160;2023-05-07T09:36:43;9.43;;;8.13;;
77769;SDS011;66961;51.482;9.160;2023-05-07T09:39:09;10.17;;;7.87;;
77769;SDS011;66961;51.482;9.160;2023-05-07T09:41:42;10.15;;;8.02;;
77769;SDS011;66961;51.482;9.160;2023-05-07T09:44:08;8.60;;;6.85;;
77769;SDS011;66961;51.482;9.160;2023-05-07T09:46:34;8.73;;;7.07;;
77769;SDS011;66961;51.482;9.160;2023-05-07T09:49:02;8.25;;;7.32;;
77769;SDS011;66961;51.482;9.160;2023-05-07T09:51:36;7.90;;;7.10;;
77769;SDS011;66961;51.482;9.160;2023-05-07T09:54:12;7.85;;;6.68;;
77769;SDS011;66961;51.482;9.160;2023-05-07T09:56:37;8.95;;;6.65;;
77769;SDS011;66961;51.482;9.160;2023-05-07T09:59:04;8.07;;;6.60;;
77769;SDS011;66961;51.482;9.160;2023-05-07T10:01:31;7.60;;;6.72;;
77769;SDS011;66961;51.482;9.160;2023-05-07T10:04:01;7.13;;;6.43;;
77769;SDS011;66961;51.482;9.160;2023-05-07T10:06:27;6.63;;;5.70;;
77769;SDS011;66961;51.482;9.160;2023-05-07T10:08:53;8.43;;;6.78;;
77769;SDS011;66961;51.482;9.160;2023-05-07T10:11:21;8.60;;;6.07;;
77769;SDS011;66961;51.482;9.160;2023-05-07T10:13:47;6.47;;;5.78;;
77769;SDS011;66961;51.482;9.160;2023-05-07T10:16:13;6.95;;;5.43;;
77769;SDS011;66961;51.482;9.160;2023-05-07T10:18:39;8.18;;;6.13;;
77769;SDS011;66961;51.482;9.160;2023-05-07T10:21:11;7.82;;;6.40;;
77769;SDS011;66961;51.482;9.160;2023-05-07T10:23:41;8.32;;;6.57;;
77769;SDS011;66961;51.482;9.160;2023-05-07T10:26:10;7.88;;;6.30;;
77769;SDS011;66961;51.482;9.160;2023-05-07T10:28:38;8.73;;;6.25;;
77769;SDS011;66961;51.482;9.160;2023-05-07T10:33:39;6.85;;;5.55;;
77769;SDS011;66961;51.482;9.160;2023-05-07T10:36:06;6.45;;;5.45;;
77769;SDS011;66961;51.482;9.160;2023-05-07T10:38:31;5.30;;;4.80;;
77769;SDS011;66961;51.482;9.160;2023-05-07T10:40:57;8.30;;;6.07;;
77769;SDS011;66961;51.482;9.160;2023-05-07T10:43:22;5.68;;;5.07;;
77769;SDS011;66961;51.482;9.160;2023-05-07T10:51:26;5.60;;;5.03;;
77769;SDS011;66961;51.482;9.160;2023-05-07T10:54:34;4.88;;;4.38;;
77769;SDS011;66961;51.482;9.160;2023-05-07T10:56:43;5.28;;;4.78;;
77769;SDS011;66961;51.482;9.160;2023-05-07T11:01:53;6.10;;;4.93;;
77769;SDS011;66961;51.482;9.160;2023-05-07T11:04:22;4.60;;;4.20;;
77769;SDS011;66961;51.482;9.160;2023-05-07T11:15:01;10.93;;;4.40;;
77769;SDS011;66961;51.482;9.160;2023-05-07T11:17:58;4.47;;;3.75;;
77769;SDS011;66961;51.482;9.160;2023-05-07T11:26:00;4.43;;;3.67;;
77769;SDS011;66961;51.482;9.160;2023-05-07T11:28:30;4.40;;;3.80;;
77769;SDS011;66961;51.482;9.160;2023-05-07T11:31:01;4.30;;;3.90;;
77769;SDS011;66961;51.482;9.160;2023-05-07T11:33:27;4.78;;;3.90;;
77769;SDS011;66961;51.482;9.160;2023-05-07T11:35:53;4.30;;;3.90;;
77769;SDS011;66961;51.482;9.160;2023-05-07T11:38:18;5.35;;;3.85;;
77769;SDS011;66961;51.482;9.160;2023-05-07T11:40:50;4.00;;;3.60;;
77769;SDS011;66961;51.482;9.160;2023-05-07T11:43:16;3.78;;;3.42;;
77769;SDS011;66961;51.482;9.160;2023-05-07T11:45:42;5.35;;;4.22;;
77769;SDS011;66961;51.482;9.160;2023-05-07T11:48:07;4.03;;;3.63;;
77769;SDS011;66961;51.482;9.160;2023-05-07T11:50:32;6.43;;;3.75;;
77769;SDS011;66961;51.482;9.160;2023-05-07T11:52:58;5.20;;;3.90;;
77769;SDS011;66961;51.482;9.160;2023-05-07T11:55:23;5.87;;;4.23;;
77769;SDS011;66961;51.482;9.160;2023-05-07T11:57:49;4.90;;;4.40;;
77769;SDS011;66961;51.482;9.160;2023-05-07T12:00:15;5.33;;;4.53;;
77769;SDS011;66961;51.482;9.160;2023-05-07T12:02:41;6.40;;;4.15;;
77769;SDS011;66961;51.482;9.160;2023-05-07T12:05:06;4.60;;;4.13;;
77769;SDS011;66961;51.482;9.160;2023-05-07T12:07:33;5.07;;;4.20;;
77769;SDS011;66961;51.482;9.160;2023-05-07T12:09:59;5.03;;;4.22;;
77769;SDS011;66961;51.482;9.160;2023-05-07T12:12:24;5.15;;;3.97;;
77769;SDS011;66961;51.482;9.160;2023-05-07T12:14:49;5.57;;;4.10;;
77769;SDS011;66961;51.482;9.160;2023-05-07T12:17:14;5.57;;;4.60;;
77769;SDS011;66961;51.482;9.160;2023-05-07T12:19:41;5.57;;;4.75;;
77769;SDS011;66961;51.482;9.160;2023-05-07T12:22:08;5.00;;;4.53;;
77769;SDS011;66961;51.482;9.160;2023-05-07T12:27:08;7.55;;;5.90;;
77769;SDS011;66961;51.482;9.160;2023-05-07T12:29:34;8.63;;;6.32;;
77769;SDS011;66961;51.482;9.160;2023-05-07T12:31:59;7.10;;;6.40;;
77769;SDS011;66961;51.482;9.160;2023-05-07T12:34:24;7.70;;;6.57;;
77769;SDS011;66961;51.482;9.160;2023-05-07T12:36:50;7.20;;;6.28;;
77769;SDS011;66961;51.482;9.160;2023-05-07T12:39:15;7.50;;;6.65;;
77769;SDS011;66961;51.482;9.160;2023-05-07T12:41:56;7.43;;;6.63;;
77769;SDS011;66961;51.482;9.160;2023-05-07T12:44:23;8.95;;;6.97;;
77769;SDS011;66961;51.482;9.160;2023-05-07T12:46:49;8.07;;;6.97;;
77769;SDS011;66961;51.482;9.160;2023-05-07T12:49:14;8.30;;;6.80;;
77769;SDS011;66961;51.482;9.160;2023-05-07T12:51:40;9.68;;;7.22;;
77769;SDS011;66961;51.482;9.160;2023-05-07T12:54:05;8.45;;;7.22;;
77769;SDS011;66961;51.482;9.160;2023-05-07T12:56:31;8.53;;;6.90;;
77769;SDS011;66961;51.482;9.160;2023-05-07T12:58:59;10.02;;;7.35;;
77769;SDS011;66961;51.482;9.160;2023-05-07T13:01:28;8.73;;;7.82;;
77769;SDS011;66961;51.482;9.160;2023-05-07T13:03:54;9.20;;;8.23;;
77769;SDS011;66961;51.482;9.160;2023-05-07T13:06:20;9.97;;;7.97;;
77769;SDS011;66961;51.482;9.160;2023-05-07T13:08:45;8.85;;;7.95;;
77769;SDS011;66961;51.482;9.160;2023-05-07T13:11:10;9.03;;;7.70;;
77769;SDS011;66961;51.482;9.160;2023-05-07T13:13:37;8.13;;;7.35;;
77769;SDS011;66961;51.482;9.160;2023-05-07T13:16:04;9.43;;;8.02;;
77769;SDS011;66961;51.482;9.160;2023-05-07T13:18:30;9.18;;;8.05;;
77769;SDS011;66961;51.482;9.160;2023-05-07T13:20:57;8.95;;;7.07;;
77769;SDS011;66961;51.482;9.160;2023-05-07T13:23:22;9.45;;;6.68;;
77769;SDS011;66961;51.482;9.160;2023-05-07T13:25:48;7.50;;;6.80;;
77769;SDS011;66961;51.482;9.160;2023-05-07T13:28:14;9.52;;;7.68;;
77769;SDS011;66961;51.482;9.160;2023-05-07T13:30:40;8.25;;;7.45;;
77769;SDS011;66961;51.482;9.160;2023-05-07T13:33:05;8.65;;;7.75;;
77769;SDS011;66961;51.482;9.160;2023-05-07T13:35:31;9.25;;;7.82;;
77769;SDS011;66961;51.482;9.160;2023-05-07T13:37:56;8.98;;;7.50;;
77769;SDS011;66961;51.482;9.160;2023-05-07T13:40:22;8.63;;;7.70;;
77769;SDS011;66961;51.482;9.160;2023-05-07T13:42:48;8.88;;;7.57;;
77769;SDS011;66961;51.482;9.160;2023-05-07T13:45:13;7.15;;;6.45;;
77769;SDS011;66961;51.482;9.160;2023-05-07T13:47:39;8.10;;;6.88;;
77769;SDS011;66961;51.482;9.160;2023-05-07T13:50:08;7.03;;;6.32;;
77769;SDS011;66961;51.482;9.160;2023-05-07T13:52:34;7.45;;;6.55;;
77769;SDS011;66961;51.482;9.160;2023-05-07T13:55:00;7.07;;;6.32;;
77769;SDS011;66961;51.482;9.160;2023-05-07T13:57:25;7.85;;;6.63;;
77769;SDS011;66961;51.482;9.160;2023-05-07T13:59:50;7.43;;;6.72;;
77769;SDS011;66961;51.482;9.160;2023-05-07T14:02:16;8.00;;;7.30;;
77769;SDS011;66961;51.482;9.160;2023-05-07T14:04:41;7.63;;;6.75;;
77769;SDS011;66961;51.482;9.160;2023-05-07T14:07:06;7.93;;;7.22;;
77769;SDS011;66961;51.482;9.160;2023-05-07T14:09:31;8.23;;;7.53;;
77769;SDS011;66961;51.482;9.160;2023-05-07T14:11:57;7.90;;;7.15;;
77769;SDS011;66961;51.482;9.160;2023-05-07T14:14:23;7.50;;;6.75;;
77769;SDS011;66961;51.482;9.160;2023-05-07T14:16:48;7.53;;;6.73;;
77769;SDS011;66961;51.482;9.160;2023-05-07T14:19:13;7.07;;;6.37;;
77769;SDS011;66961;51.482;9.160;2023-05-07T14:21:39;7.13;;;6.53;;
77769;SDS011;66961;51.482;9.160;2023-05-07T14:24:06;7.90;;;6.27;;
77769;SDS011;66961;51.482;9.160;2023-05-07T14:26:32;7.10;;;6.45;;
77769;SDS011;66961;51.482;9.160;2023-05-07T14:28:57;7.10;;;6.50;;
77769;SDS011;66961;51.482;9.160;2023-05-07T14:31:23;7.22;;;6.60;;
77769;SDS011;66961;51.482;9.160;2023-05-07T14:33:48;9.27;;;6.35;;
77769;SDS011;66961;51.482;9.160;2023-05-07T14:36:13;7.07;;;6.38;;
77769;SDS011;66961;51.482;9.160;2023-05-07T14:38:39;7.28;;;6.57;;
77769;SDS011;66961;51.482;9.160;2023-05-07T14:41:04;6.50;;;6.00;;
77769;SDS011;66961;51.482;9.160;2023-05-07T14:43:29;7.88;;;6.47;;
77769;SDS011;66961;51.482;9.160;2023-05-07T14:45:55;7.65;;;6.95;;
77769;SDS011;66961;51.482;9.160;2023-05-07T14:48:20;7.30;;;6.60;;
77769;SDS011;66961;51.482;9.160;2023-05-07T14:50:46;9.47;;;8.63;;
77769;SDS011;66961;51.482;9.160;2023-05-07T14:53:12;9.10;;;8.30;;